sensor_id;sensor_type;location;lat;lon;timestamp;pressure;altitude;pressure_sealevel;temperature;humidity
43681;BME280;29281;50.356;30.894;2023-05-07T00:00:25;101106.66;;;8.89;43.90
43681;BME280;29281;50.356;30.894;2023-05-07T00:01:30;101109.45;;;8.86;44.01
43681;BME280;29281;50.356;30.894;2023-05-07T00:02:36;101111.41;;;8.83;44.28
43681;BME280;29281;50.356;30.894;2023-05-07T00:03:43;101106.90;;;8.85;43.94
43681;BME280;29281;50.356;30.894;2023-05-07T00:04:49;101103.52;;;8.81;44.24
43681;BME280;29281;50.356;30.894;2023-05-07T00:05:52;101107.89;;;8.82;44.01
43681;BME280;29281;50.356;30.894;2023-05-07T00:06:57;101102.94;;;8.74;44.40
43681;BME280;29281;50.356;30.894;2023-05-07T00:08:01;101106.66;;;8.89;44.37
43681;BME280;29281;50.356;30.894;2023-05-07T00:09:04;101101.43;;;8.88;43.88
43681;BME280;29281;50.356;30.894;2023-05-07T00:10:08;101112.75;;;8.91;43.89
43681;BME280;29281;50.356;30.894;2023-05-07T00:11:11;101104.02;;;8.89;44.07
43681;BME280;29281;50.356;30.894;2023-05-07T00:12:15;101108.62;;;8.86;44.06
43681;BME280;29281;50.356;30.894;2023-05-07T00:13:19;101102.59;;;8.82;44.03
43681;BME280;29281;50.356;30.894;2023-05-07T00:14:22;101103.06;;;8.71;44.51
43681;BME280;29281;50.356;30.894;2023-05-07T00:15:26;101101.28;;;8.72;44.59
43681;BME280;29281;50.356;30.894;2023-05-07T00:16:28;101107.50;;;8.71;44.55
43681;BME280;29281;50.356;30.894;2023-05-07T00:17:33;101111.11;;;8.70;44.58
43681;BME280;29281;50.356;30.894;2023-05-07T00:18:36;101105.48;;;8.57;44.62
43681;BME280;29281;50.356;30.894;2023-05-07T00:19:40;101099.33;;;8.57;44.75
43681;BME280;29281;50.356;30.894;2023-05-07T00:20:42;101100.55;;;8.50;44.78
43681;BME280;29281;50.356;30.894;2023-05-07T00:21:46;101105.05;;;8.48;45.08
43681;BME280;29281;50.356;30.894;2023-05-07T00:22:50;101099.33;;;8.57;44.67
43681;BME280;29281;50.356;30.894;2023-05-07T00:23:58;101100.19;;;8.57;45.13
43681;BME280;29281;50.356;30.894;2023-05-07T00:24:59;101100.12;;;8.59;44.78
43681;BME280;29281;50.356;30.894;2023-05-07T00:26:03;101097.55;;;8.57;44.83
43681;BME280;29281;50.356;30.894;2023-05-07T00:27:07;101097.61;;;8.56;44.76
43681;BME280;29281;50.356;30.894;2023-05-07T00:28:11;101093.97;;;8.58;44.85
43681;BME280;29281;50.356;30.894;2023-05-07T00:29:14;101091.69;;;8.51;44.58
43681;BME280;29281;50.356;30.894;2023-05-07T00:30:17;101089.73;;;8.35;44.60
43681;BME280;29281;50.356;30.894;2023-05-07T00:31:20;101089.36;;;8.43;44.73
43681;BME280;29281;50.356;30.894;2023-05-07T00:32:23;101090.30;;;8.42;44.62
43681;BME280;29281;50.356;30.894;2023-05-07T00:33:26;101088.50;;;8.42;44.71
43681;BME280;29281;50.356;30.894;2023-05-07T00:34:30;101087.38;;;8.48;44.76
43681;BME280;29281;50.356;30.894;2023-05-07T00:35:32;101088.37;;;8.45;44.68
43681;BME280;29281;50.356;30.894;2023-05-07T00:36:36;101083.08;;;8.45;44.73
43681;BME280;29281;50.356;30.894;2023-05-07T00:37:39;101081.49;;;8.41;44.84
43681;BME280;29281;50.356;30.894;2023-05-07T00:38:43;101082.16;;;8.46;44.80
43681;BME280;29281;50.356;30.894;2023-05-07T00:39:47;101076.36;;;8.38;44.72
43681;BME280;29281;50.356;30.894;2023-05-07T00:40:50;101081.30;;;8.46;44.75
43681;BME280;29281;50.356;30.894;2023-05-07T00:41:54;101077.13;;;8.40;44.58
43681;BME280;29281;50.356;30.894;2023-05-07T00:42:57;101084.30;;;8.38;44.52
43681;BME280;29281;50.356;30.894;2023-05-07T00:44:03;101080.86;;;8.36;44.76
43681;BME280;29281;50.356;30.894;2023-05-07T00:45:08;101086.95;;;8.38;44.76
43681;BME280;29281;50.356;30.894;2023-05-07T00:46:12;101084.44;;;8.35;45.05
43681;BME280;29281;50.356;30.894;2023-05-07T00:47:17;101089.73;;;8.35;44.96
43681;BME280;29281;50.356;30.894;2023-05-07T00:48:20;101083.28;;;8.41;46.25
43681;BME280;29281;50.356;30.894;2023-05-07T00:49:26;101088.86;;;8.35;45.15
43681;BME280;29281;50.356;30.894;2023-05-07T00:50:30;101085.42;;;8.33;44.93
43681;BME280;29281;50.356;30.894;2023-05-07T00:51:35;101086.45;;;8.29;45.03
43681;BME280;29281;50.356;30.894;2023-05-07T00:52:39;101081.22;;;8.27;45.16
43681;BME280;29281;50.356;30.894;2023-05-07T00:53:45;101089.86;;;8.32;44.86
43681;BME280;29281;50.356;30.894;2023-05-07T00:54:50;101085.36;;;8.34;44.93
43681;BME280;29281;50.356;30.894;2023-05-07T00:55:54;101085.30;;;8.36;45.03
43681;BME280;29281;50.356;30.894;2023-05-07T00:56:59;101085.52;;;8.30;44.84
43681;BME280;29281;50.356;30.894;2023-05-07T00:58:04;101089.86;;;8.32;44.75
43681;BME280;29281;50.356;30.894;2023-05-07T00:59:09;101085.14;;;8.19;45.04
43681;BME280;29281;50.356;30.894;2023-05-07T01:00:13;101082.81;;;8.11;45.29
43681;BME280;29281;50.356;30.894;2023-05-07T01:01:16;101086.20;;;8.15;45.41
43681;BME280;29281;50.356;30.894;2023-05-07T01:02:21;101096.30;;;8.25;45.02
43681;BME280;29281;50.356;30.894;2023-05-07T01:03:25;101084.28;;;8.18;44.85
43681;BME280;29281;50.356;30.894;2023-05-07T01:04:30;101093.94;;;8.19;45.35
43681;BME280;29281;50.356;30.894;2023-05-07T01:05:37;101092.66;;;8.28;44.96
43681;BME280;29281;50.356;30.894;2023-05-07T01:06:41;101095.02;;;8.35;45.41
43681;BME280;29281;50.356;30.894;2023-05-07T01:07:46;101099.52;;;8.33;45.24
43681;BME280;29281;50.356;30.894;2023-05-07T01:08:50;101095.15;;;8.32;44.62
43681;BME280;29281;50.356;30.894;2023-05-07T01:09:56;101101.17;;;8.36;44.58
43681;BME280;29281;50.356;30.894;2023-05-07T01:11:01;101096.39;;;8.24;44.43
43681;BME280;29281;50.356;30.894;2023-05-07T01:12:06;101106.12;;;8.23;44.58
43681;BME280;29281;50.356;30.894;2023-05-07T01:13:10;101107.23;;;8.18;44.68
43681;BME280;29281;50.356;30.894;2023-05-07T01:14:16;101106.31;;;8.19;45.04
43681;BME280;29281;50.356;30.894;2023-05-07T01:15:21;101108.89;;;8.20;44.63
43681;BME280;29281;50.356;30.894;2023-05-07T01:16:25;101105.20;;;8.24;44.78
43681;BME280;29281;50.356;30.894;2023-05-07T01:17:28;101108.95;;;8.19;44.47
43681;BME280;29281;50.356;30.894;2023-05-07T01:18:31;101104.40;;;8.22;44.51
43681;BME280;29281;50.356;30.894;2023-05-07T01:19:35;101106.82;;;8.27;44.68
43681;BME280;29281;50.356;30.894;2023-05-07T01:20:39;101095.31;;;8.28;44.69
43681;BME280;29281;50.356;30.894;2023-05-07T01:21:47;101104.91;;;8.30;44.64
43681;BME280;29281;50.356;30.894;2023-05-07T01:22:52;101105.95;;;8.26;44.51
43681;BME280;29281;50.356;30.894;2023-05-07T01:23:57;101111.34;;;8.25;44.88
43681;BME280;29281;50.356;30.894;2023-05-07T01:25:03;101113.45;;;8.17;44.76
43681;BME280;29281;50.356;30.894;2023-05-07T01:26:08;101109.37;;;8.09;44.79
43681;BME280;29281;50.356;30.894;2023-05-07T01:27:12;101107.84;;;8.24;45.27
43681;BME280;29281;50.356;30.894;2023-05-07T01:28:15;101109.34;;;8.30;45.41
43681;BME280;29281;50.356;30.894;2023-05-07T01:29:19;101108.48;;;8.29;44.51
43681;BME280;29281;50.356;30.894;2023-05-07T01:30:22;101113.42;;;8.38;44.30
43681;BME280;29281;50.356;30.894;2023-05-07T01:31:26;101112.93;;;8.49;44.36
43681;BME280;29281;50.356;30.894;2023-05-07T01:33:44;101105.31;;;8.41;44.36
43681;BME280;29281;50.356;30.894;2023-05-07T01:34:48;101104.75;;;8.35;44.51
43681;BME280;29281;50.356;30.894;2023-05-07T01:35:53;101107.39;;;8.35;44.58
43681;BME280;29281;50.356;30.894;2023-05-07T01:36:56;101107.96;;;8.41;44.66
43681;BME280;29281;50.356;30.894;2023-05-07T01:38:01;101106.05;;;8.45;44.79
43681;BME280;29281;50.356;30.894;2023-05-07T01:39:07;101107.33;;;8.36;44.37
43681;BME280;29281;50.356;30.894;2023-05-07T01:40:12;101107.39;;;8.35;46.14
43681;BME280;29281;50.356;30.894;2023-05-07T01:41:16;101104.87;;;8.32;45.20
43681;BME280;29281;50.356;30.894;2023-05-07T01:42:21;101116.19;;;8.35;44.89
43681;BME280;29281;50.356;30.894;2023-05-07T01:43:26;101112.33;;;8.42;44.97
43681;BME280;29281;50.356;30.894;2023-05-07T01:44:28;101113.19;;;8.43;45.74
43681;BME280;29281;50.356;30.894;2023-05-07T01:45:32;101113.98;;;8.45;44.91
43681;BME280;29281;50.356;30.894;2023-05-07T01:46:35;101109.42;;;8.49;44.78
43681;BME280;29281;50.356;30.894;2023-05-07T01:47:38;101108.43;;;8.51;44.63
43681;BME280;29281;50.356;30.894;2023-05-07T01:48:41;101121.66;;;8.51;44.76
43681;BME280;29281;50.356;30.894;2023-05-07T01:49:46;101113.06;;;8.46;44.73
43681;BME280;29281;50.356;30.894;2023-05-07T01:50:50;101119.57;;;8.39;44.69
43681;BME280;29281;50.356;30.894;2023-05-07T01:51:54;101116.32;;;8.32;45.23
43681;BME280;29281;50.356;30.894;2023-05-07T01:52:57;101113.61;;;8.34;45.33
43681;BME280;29281;50.356;30.894;2023-05-07T01:54:01;101114.56;;;8.31;45.35
43681;BME280;29281;50.356;30.894;2023-05-07T01:55:05;101114.63;;;8.30;45.77
43681;BME280;29281;50.356;30.894;2023-05-07T01:56:09;101123.72;;;8.24;45.54
43681;BME280;29281;50.356;30.894;2023-05-07T01:57:14;101125.56;;;8.22;45.53
43681;BME280;29281;50.356;30.894;2023-05-07T01:58:17;101118.07;;;8.11;45.64
43681;BME280;29281;50.356;30.894;2023-05-07T01:59:21;101123.64;;;8.05;45.84
43681;BME280;29281;50.356;30.894;2023-05-07T02:00:26;101118.87;;;8.13;45.99
43681;BME280;29281;50.356;30.894;2023-05-07T02:01:30;101116.08;;;7.96;46.11
43681;BME280;29281;50.356;30.894;2023-05-07T02:02:35;101123.25;;;7.94;46.29
43681;BME280;29281;50.356;30.894;2023-05-07T02:03:38;101116.50;;;8.07;46.36
43681;BME280;29281;50.356;30.894;2023-05-07T02:04:44;101117.49;;;8.05;46.14
43681;BME280;29281;50.356;30.894;2023-05-07T02:05:48;101122.05;;;8.01;46.25
43681;BME280;29281;50.356;30.894;2023-05-07T02:07:00;101115.50;;;7.90;46.42
43681;BME280;29281;50.356;30.894;2023-05-07T02:08:04;101122.08;;;7.80;46.91
43681;BME280;29281;50.356;30.894;2023-05-07T02:09:11;101126.72;;;7.95;46.93
43681;BME280;29281;50.356;30.894;2023-05-07T02:10:16;101119.80;;;7.92;46.63
43681;BME280;29281;50.356;30.894;2023-05-07T02:12:34;101124.69;;;8.01;47.04
43681;BME280;29281;50.356;30.894;2023-05-07T02:13:37;101125.16;;;7.91;46.64
43681;BME280;29281;50.356;30.894;2023-05-07T02:14:40;101132.98;;;7.72;46.89
43681;BME280;29281;50.356;30.894;2023-05-07T02:15:45;101130.81;;;7.82;46.91
43681;BME280;29281;50.356;30.894;2023-05-07T02:16:49;101127.19;;;7.84;46.98
43681;BME280;29281;50.356;30.894;2023-05-07T02:18:07;101130.17;;;7.97;47.03
43681;BME280;29281;50.356;30.894;2023-05-07T02:19:10;101131.61;;;7.84;47.32
43681;BME280;29281;50.356;30.894;2023-05-07T02:20:14;101138.44;;;7.89;47.07
43681;BME280;29281;50.356;30.894;2023-05-07T02:21:18;101130.05;;;8.00;47.12
43681;BME280;29281;50.356;30.894;2023-05-07T02:22:24;101133.42;;;8.03;46.85
43681;BME280;29281;50.356;30.894;2023-05-07T02:23:29;101136.13;;;8.02;46.71
43681;BME280;29281;50.356;30.894;2023-05-07T02:24:34;101140.62;;;8.00;46.80
43681;BME280;29281;50.356;30.894;2023-05-07T02:25:37;101142.53;;;7.96;46.85
43681;BME280;29281;50.356;30.894;2023-05-07T02:26:41;101140.62;;;8.00;47.08
43681;BME280;29281;50.356;30.894;2023-05-07T02:27:45;101139.30;;;7.90;47.08
43681;BME280;29281;50.356;30.894;2023-05-07T02:28:49;101139.48;;;7.85;47.22
43681;BME280;29281;50.356;30.894;2023-05-07T02:29:53;101137.52;;;7.90;47.07
43681;BME280;29281;50.356;30.894;2023-05-07T02:30:56;101140.69;;;7.98;46.95
43681;BME280;29281;50.356;30.894;2023-05-07T02:32:01;101142.75;;;7.92;47.59
43681;BME280;29281;50.356;30.894;2023-05-07T02:33:05;101145.61;;;8.07;47.29
43681;BME280;29281;50.356;30.894;2023-05-07T02:34:10;101142.16;;;8.05;46.98
43681;BME280;29281;50.356;30.894;2023-05-07T02:35:15;101149.23;;;8.05;47.05
43681;BME280;29281;50.356;30.894;2023-05-07T02:36:17;101153.08;;;8.18;47.29
43681;BME280;29281;50.356;30.894;2023-05-07T02:37:26;101147.58;;;8.02;47.58
43681;BME280;29281;50.356;30.894;2023-05-07T02:38:30;101155.78;;;8.17;46.93
43681;BME280;29281;50.356;30.894;2023-05-07T02:39:33;101150.43;;;8.18;47.01
43681;BME280;29281;50.356;30.894;2023-05-07T02:40:37;101147.11;;;8.13;46.96
43681;BME280;29281;50.356;30.894;2023-05-07T02:41:41;101143.77;;;8.09;46.85
43681;BME280;29281;50.356;30.894;2023-05-07T02:42:44;101143.23;;;8.22;46.96
43681;BME280;29281;50.356;30.894;2023-05-07T02:43:48;101147.44;;;8.26;46.83
43681;BME280;29281;50.356;30.894;2023-05-07T02:44:52;101140.36;;;8.26;46.75
43681;BME280;29281;50.356;30.894;2023-05-07T02:46:03;101143.10;;;8.25;46.98
43681;BME280;29281;50.356;30.894;2023-05-07T02:47:08;101141.70;;;8.16;46.84
43681;BME280;29281;50.356;30.894;2023-05-07T02:48:15;101138.19;;;8.16;46.75
43681;BME280;29281;50.356;30.894;2023-05-07T02:49:20;101141.70;;;8.16;46.95
43681;BME280;29281;50.356;30.894;2023-05-07T02:50:24;101142.55;;;8.17;46.94
43681;BME280;29281;50.356;30.894;2023-05-07T02:51:27;101142.68;;;8.13;47.45
43681;BME280;29281;50.356;30.894;2023-05-07T02:52:32;101137.33;;;8.15;47.62
43681;BME280;29281;50.356;30.894;2023-05-07T02:53:35;101149.38;;;8.22;47.01
43681;BME280;29281;50.356;30.894;2023-05-07T02:54:40;101150.02;;;8.27;47.34
43681;BME280;29281;50.356;30.894;2023-05-07T02:55:43;101154.67;;;8.22;47.09
43681;BME280;29281;50.356;30.894;2023-05-07T02:56:46;101157.45;;;8.19;47.07
43681;BME280;29281;50.356;30.894;2023-05-07T02:57:52;101164.70;;;8.14;47.16
43681;BME280;29281;50.356;30.894;2023-05-07T02:58:58;101157.25;;;8.24;47.33
43681;BME280;29281;50.356;30.894;2023-05-07T03:00:12;101157.96;;;8.27;46.94
43681;BME280;29281;50.356;30.894;2023-05-07T03:01:14;101160.67;;;8.26;47.31
43681;BME280;29281;50.356;30.894;2023-05-07T03:02:22;101166.05;;;8.24;47.15
43681;BME280;29281;50.356;30.894;2023-05-07T03:03:27;101161.08;;;8.17;47.24
43681;BME280;29281;50.356;30.894;2023-05-07T03:04:31;101160.48;;;8.30;47.48
43681;BME280;29281;50.356;30.894;2023-05-07T03:05:35;101166.76;;;8.28;47.13
43681;BME280;29281;50.356;30.894;2023-05-07T03:06:38;101159.91;;;8.24;47.05
43681;BME280;29281;50.356;30.894;2023-05-07T03:07:40;101161.75;;;8.22;47.19
43681;BME280;29281;50.356;30.894;2023-05-07T03:08:46;101159.74;;;8.27;47.37
43681;BME280;29281;50.356;30.894;2023-05-07T03:09:51;101163.95;;;8.32;47.33
43681;BME280;29281;50.356;30.894;2023-05-07T03:10:55;101160.55;;;8.29;47.13
43681;BME280;29281;50.356;30.894;2023-05-07T03:11:59;101161.98;;;8.37;47.20
43681;BME280;29281;50.356;30.894;2023-05-07T03:13:02;101168.14;;;8.38;47.08
43681;BME280;29281;50.356;30.894;2023-05-07T03:14:05;101165.55;;;8.36;47.23
43681;BME280;29281;50.356;30.894;2023-05-07T03:15:09;101171.84;;;8.54;47.16
43681;BME280;29281;50.356;30.894;2023-05-07T03:16:15;101175.12;;;8.59;47.11
43681;BME280;29281;50.356;30.894;2023-05-07T03:17:18;101171.36;;;8.44;47.16
43681;BME280;29281;50.356;30.894;2023-05-07T03:18:23;101177.20;;;8.53;47.45
43681;BME280;29281;50.356;30.894;2023-05-07T03:19:27;101174.23;;;8.40;47.38
43681;BME280;29281;50.356;30.894;2023-05-07T03:20:30;101171.10;;;8.51;47.09
43681;BME280;29281;50.356;30.894;2023-05-07T03:21:33;101172.59;;;8.56;46.95
43681;BME280;29281;50.356;30.894;2023-05-07T03:22:41;101175.34;;;8.55;47.09
43681;BME280;29281;50.356;30.894;2023-05-07T03:23:44;101177.33;;;8.50;46.89
43681;BME280;29281;50.356;30.894;2023-05-07T03:24:51;101173.02;;;8.47;47.01
43681;BME280;29281;50.356;30.894;2023-05-07T03:25:54;101177.89;;;8.56;47.81
43681;BME280;29281;50.356;30.894;2023-05-07T03:26:57;101183.06;;;8.59;47.14
43681;BME280;29281;50.356;30.894;2023-05-07T03:28:01;101181.81;;;8.68;47.10
43681;BME280;29281;50.356;30.894;2023-05-07T03:29:06;101180.83;;;8.70;47.12
43681;BME280;29281;50.356;30.894;2023-05-07T03:30:10;101178.50;;;8.63;46.87
43681;BME280;29281;50.356;30.894;2023-05-07T03:31:14;101183.00;;;8.61;47.01
43681;BME280;29281;50.356;30.894;2023-05-07T03:32:17;101184.72;;;8.62;46.88
43681;BME280;29281;50.356;30.894;2023-05-07T03:33:21;101185.03;;;8.74;46.80
43681;BME280;29281;50.356;30.894;2023-05-07T03:34:25;101191.61;;;8.66;46.67
43681;BME280;29281;50.356;30.894;2023-05-07T03:35:30;101186.81;;;8.74;47.78
43681;BME280;29281;50.356;30.894;2023-05-07T03:36:34;101193.64;;;8.79;47.23
43681;BME280;29281;50.356;30.894;2023-05-07T03:37:40;101193.77;;;8.76;48.00
43681;BME280;29281;50.356;30.894;2023-05-07T03:38:44;101188.41;;;8.78;47.04
43681;BME280;29281;50.356;30.894;2023-05-07T03:39:47;101195.25;;;8.63;46.92
43681;BME280;29281;50.356;30.894;2023-05-07T03:40:50;101193.14;;;8.51;47.16
43681;BME280;29281;50.356;30.894;2023-05-07T03:41:53;101195.98;;;8.67;47.14
43681;BME280;29281;50.356;30.894;2023-05-07T03:42:57;101190.99;;;8.79;47.30
43681;BME280;29281;50.356;30.894;2023-05-07T03:44:01;101191.06;;;8.78;47.82
43681;BME280;29281;50.356;30.894;2023-05-07T03:45:04;101187.35;;;8.82;48.24
43681;BME280;29281;50.356;30.894;2023-05-07T03:46:09;101197.88;;;8.84;47.04
43681;BME280;29281;50.356;30.894;2023-05-07T03:47:13;101193.64;;;8.79;46.87
43681;BME280;29281;50.356;30.894;2023-05-07T03:48:17;101192.84;;;8.77;47.65
43681;BME280;29281;50.356;30.894;2023-05-07T03:49:21;101196.66;;;8.91;47.55
43681;BME280;29281;50.356;30.894;2023-05-07T03:50:26;101195.67;;;8.93;48.41
43681;BME280;29281;50.356;30.894;2023-05-07T03:51:29;101197.88;;;9.02;46.98
43681;BME280;29281;50.356;30.894;2023-05-07T03:52:35;101191.95;;;8.97;47.26
43681;BME280;29281;50.356;30.894;2023-05-07T03:53:40;101193.88;;;8.94;46.76
43681;BME280;29281;50.356;30.894;2023-05-07T03:54:44;101197.81;;;9.04;46.47
43681;BME280;29281;50.356;30.894;2023-05-07T03:55:51;101201.06;;;9.10;46.49
43681;BME280;29281;50.356;30.894;2023-05-07T03:56:54;101202.98;;;9.07;46.14
43681;BME280;29281;50.356;30.894;2023-05-07T03:58:02;101197.39;;;8.94;46.52
43681;BME280;29281;50.356;30.894;2023-05-07T03:59:06;101198.31;;;8.93;46.52
43681;BME280;29281;50.356;30.894;2023-05-07T04:00:10;101201.83;;;8.94;46.76
43681;BME280;29281;50.356;30.894;2023-05-07T04:01:24;101207.14;;;8.73;46.57
43681;BME280;29281;50.356;30.894;2023-05-07T04:02:27;101198.74;;;8.84;47.16
43681;BME280;29281;50.356;30.894;2023-05-07T04:03:33;101204.97;;;9.02;46.78
43681;BME280;29281;50.356;30.894;2023-05-07T04:04:38;101200.06;;;9.13;46.86
43681;BME280;29281;50.356;30.894;2023-05-07T04:05:42;101213.45;;;9.10;46.33
43681;BME280;29281;50.356;30.894;2023-05-07T04:06:45;101212.52;;;9.11;46.45
43681;BME280;29281;50.356;30.894;2023-05-07T04:07:50;101212.32;;;9.15;46.43
43681;BME280;29281;50.356;30.894;2023-05-07T04:08:55;101208.72;;;8.98;46.25
43681;BME280;29281;50.356;30.894;2023-05-07T04:09:59;101205.83;;;8.84;46.64
43681;BME280;29281;50.356;30.894;2023-05-07T04:11:05;101208.48;;;9.02;47.35
43681;BME280;29281;50.356;30.894;2023-05-07T04:12:08;101206.13;;;8.96;46.49
43681;BME280;29281;50.356;30.894;2023-05-07T04:13:12;101203.91;;;9.06;46.78
43681;BME280;29281;50.356;30.894;2023-05-07T04:14:16;101211.02;;;9.24;46.46
43681;BME280;29281;50.356;30.894;2023-05-07T04:15:20;101211.23;;;9.20;46.92
43681;BME280;29281;50.356;30.894;2023-05-07T04:16:23;101205.94;;;9.38;46.75
43681;BME280;29281;50.356;30.894;2023-05-07T04:17:27;101199.42;;;9.45;46.31
43681;BME280;29281;50.356;30.894;2023-05-07T04:18:31;101208.17;;;9.29;45.81
43681;BME280;29281;50.356;30.894;2023-05-07T04:19:36;101210.89;;;9.46;45.76
43681;BME280;29281;50.356;30.894;2023-05-07T04:20:39;101207.52;;;9.42;46.91
43681;BME280;29281;50.356;30.894;2023-05-07T04:21:44;101208.81;;;9.15;46.12
43681;BME280;29281;50.356;30.894;2023-05-07T04:22:48;101213.18;;;9.16;46.92
43681;BME280;29281;50.356;30.894;2023-05-07T04:23:52;101215.98;;;9.32;47.74
43681;BME280;29281;50.356;30.894;2023-05-07T04:24:55;101208.66;;;9.37;47.36
43681;BME280;29281;50.356;30.894;2023-05-07T04:25:59;101210.97;;;9.44;47.13
43681;BME280;29281;50.356;30.894;2023-05-07T04:27:08;101208.58;;;9.20;46.88
43681;BME280;29281;50.356;30.894;2023-05-07T04:28:13;101200.06;;;9.13;47.45
43681;BME280;29281;50.356;30.894;2023-05-07T04:29:17;101204.42;;;9.33;47.78
43681;BME280;29281;50.356;30.894;2023-05-07T04:30:19;101200.91;;;9.32;46.87
43681;BME280;29281;50.356;30.894;2023-05-07T04:31:23;101203.66;;;9.31;47.08
43681;BME280;29281;50.356;30.894;2023-05-07T04:32:27;101200.63;;;9.38;47.08
43681;BME280;29281;50.356;30.894;2023-05-07T04:33:31;101202.84;;;9.47;47.19
43681;BME280;29281;50.356;30.894;2023-05-07T04:34:35;101199.77;;;9.38;47.45
43681;BME280;29281;50.356;30.894;2023-05-07T04:35:38;101203.56;;;9.51;47.19
43681;BME280;29281;50.356;30.894;2023-05-07T04:36:43;101202.48;;;9.55;47.54
43681;BME280;29281;50.356;30.894;2023-05-07T04:37:47;101196.53;;;9.50;47.28
43681;BME280;29281;50.356;30.894;2023-05-07T04:38:52;101202.22;;;9.42;46.83
43681;BME280;29281;50.356;30.894;2023-05-07T04:39:55;101201.22;;;9.45;47.08
43681;BME280;29281;50.356;30.894;2023-05-07T04:41:03;101196.98;;;9.41;46.95
43681;BME280;29281;50.356;30.894;2023-05-07T04:42:09;101200.70;;;9.56;47.71
43681;BME280;29281;50.356;30.894;2023-05-07T04:43:14;101194.19;;;9.44;48.18
43681;BME280;29281;50.356;30.894;2023-05-07T04:44:20;101202.08;;;9.45;48.52
43681;BME280;29281;50.356;30.894;2023-05-07T04:45:25;101198.91;;;9.37;48.67
43681;BME280;29281;50.356;30.894;2023-05-07T04:46:28;101205.06;;;9.19;47.88
43681;BME280;29281;50.356;30.894;2023-05-07T04:47:32;101209.03;;;9.29;48.64
43681;BME280;29281;50.356;30.894;2023-05-07T04:48:37;101197.50;;;9.30;48.65
43681;BME280;29281;50.356;30.894;2023-05-07T04:49:41;101202.08;;;9.45;48.74
43681;BME280;29281;50.356;30.894;2023-05-07T04:50:51;101206.73;;;9.40;48.70
43681;BME280;29281;50.356;30.894;2023-05-07T04:51:55;101197.53;;;9.47;48.98
43681;BME280;29281;50.356;30.894;2023-05-07T04:52:59;101197.53;;;9.47;49.27
43681;BME280;29281;50.356;30.894;2023-05-07T04:54:03;101204.76;;;9.63;48.29
43681;BME280;29281;50.356;30.894;2023-05-07T04:55:06;101208.07;;;9.49;48.00
43681;BME280;29281;50.356;30.894;2023-05-07T04:56:11;101197.78;;;9.43;49.13
43681;BME280;29281;50.356;30.894;2023-05-07T04:57:17;101193.27;;;9.45;49.34
43681;BME280;29281;50.356;30.894;2023-05-07T04:58:21;101200.63;;;9.57;48.50
43681;BME280;29281;50.356;30.894;2023-05-07T04:59:23;101204.76;;;9.63;48.53
43681;BME280;29281;50.356;30.894;2023-05-07T05:00:27;101198.63;;;9.62;47.82
43681;BME280;29281;50.356;30.894;2023-05-07T05:01:32;101192.46;;;9.62;48.49
43681;BME280;29281;50.356;30.894;2023-05-07T05:02:37;101191.50;;;9.63;48.47
43681;BME280;29281;50.356;30.894;2023-05-07T05:03:40;101187.41;;;9.74;48.10
43681;BME280;29281;50.356;30.894;2023-05-07T05:04:44;101183.66;;;9.78;47.97
43681;BME280;29281;50.356;30.894;2023-05-07T05:05:51;101184.70;;;9.93;48.39
43681;BME280;29281;50.356;30.894;2023-05-07T05:06:56;101186.23;;;9.80;47.04
43681;BME280;29281;50.356;30.894;2023-05-07T05:08:00;101181.64;;;9.83;48.62
43681;BME280;29281;50.356;30.894;2023-05-07T05:09:03;101181.58;;;9.85;47.89
43681;BME280;29281;50.356;30.894;2023-05-07T05:10:09;101186.30;;;9.61;48.79
43681;BME280;29281;50.356;30.894;2023-05-07T05:11:14;101190.56;;;9.64;47.69
43681;BME280;29281;50.356;30.894;2023-05-07T05:12:18;101181.64;;;9.83;48.69
43681;BME280;29281;50.356;30.894;2023-05-07T05:13:22;101180.57;;;9.87;48.44
43681;BME280;29281;50.356;30.894;2023-05-07T05:14:26;101183.52;;;9.81;48.09
43681;BME280;29281;50.356;30.894;2023-05-07T05:15:29;101178.06;;;9.84;48.75
43681;BME280;29281;50.356;30.894;2023-05-07T05:16:35;101170.31;;;9.80;48.63
43681;BME280;29281;50.356;30.894;2023-05-07T05:17:40;101187.67;;;9.87;48.14
43681;BME280;29281;50.356;30.894;2023-05-07T05:18:45;101175.05;;;9.92;49.00
43681;BME280;29281;50.356;30.894;2023-05-07T05:19:51;101174.80;;;9.97;48.14
43681;BME280;29281;50.356;30.894;2023-05-07T05:20:56;101175.73;;;9.96;48.01
43681;BME280;29281;50.356;30.894;2023-05-07T05:21:59;101171.07;;;10.18;48.20
43681;BME280;29281;50.356;30.894;2023-05-07T05:23:05;101168.91;;;10.26;47.96
43681;BME280;29281;50.356;30.894;2023-05-07T05:24:09;101168.86;;;10.09;46.23
43681;BME280;29281;50.356;30.894;2023-05-07T05:25:13;101172.12;;;10.33;47.15
43681;BME280;29281;50.356;30.894;2023-05-07T05:26:17;101166.09;;;10.46;46.49
43681;BME280;29281;50.356;30.894;2023-05-07T05:27:23;101170.66;;;10.08;45.91
43681;BME280;29281;50.356;30.894;2023-05-07T05:28:26;101173.40;;;9.90;46.65
43681;BME280;29281;50.356;30.894;2023-05-07T05:29:31;101159.41;;;10.22;46.94
43681;BME280;29281;50.356;30.894;2023-05-07T05:30:36;101174.28;;;10.42;45.94
43681;BME280;29281;50.356;30.894;2023-05-07T05:31:40;101158.98;;;10.47;45.76
43681;BME280;29281;50.356;30.894;2023-05-07T05:32:46;101171.70;;;10.40;45.56
43681;BME280;29281;50.356;30.894;2023-05-07T05:33:50;101163.73;;;10.40;45.75
43681;BME280;29281;50.356;30.894;2023-05-07T05:34:54;101162.70;;;10.60;45.20
43681;BME280;29281;50.356;30.894;2023-05-07T05:35:57;101156.53;;;10.60;46.18
43681;BME280;29281;50.356;30.894;2023-05-07T05:37:01;101168.17;;;10.57;45.35
43681;BME280;29281;50.356;30.894;2023-05-07T05:38:05;101166.77;;;10.67;45.35
43681;BME280;29281;50.356;30.894;2023-05-07T05:39:11;101168.75;;;10.46;45.02